Impacts METAR Board
IDs:

KFLL - Ft Lauderdale-Hollyw, FL, US

Updated at: 1500 UTC 20 Aug 2019
Potential Impact None Slight Moderate High
Time 20/03Z 20/04Z 20/05Z 20/06Z 20/07Z 20/08Z 20/09Z 20/10Z 20/11Z 20/12Z 20/13Z 20/14Z 20/15Z
Temp81 81 81 81 81 82 83 76 77 77 78 81 84
Dewpt73 73 73 74 74 73 72 72 72 73 74 75 73
Altim30.06 30.06 30.07 30.05 30.03 30.03 30.02 30.04 30.08 30.09 30.09 30.10 30.09
VIS10 10 10 10 10 10 10 10 10 10 10 10 10
CIG-- 130 70 -- -- -- -- 45 70 100 100 250 250
CoverSCTBKNBKNSCTFEWSCTSCTBKNOVCBKNBKNBKNBKN
FltCatVFRVFRVFRVFRVFRVFRVFRVFRVFRVFRVFRVFRVFR
WX--------------------------
WDir130150140140130120100120120100130110110
WSpd13 7 5 4 6 7 9 6 8 14 7 11 9
WGst-- -- -- -- -- -- -- -- -- -- -- -- --
Raw hourly METARs
KFLL 200253Z 13013KT 10SM FEW028 SCT075 27/23 A3006 RMK AO2 SLP179 60000 T02720228 51015
KFLL 200353Z 15007KT 10SM FEW028 FEW070 BKN130 BKN250 27/23 A3006 RMK AO2 SLP180 T02720228
KFLL 200453Z 14005KT 10SM FEW025 BKN070 BKN130 BKN250 27/23 A3007 RMK AO2 SLP181 T02720228 403220256
KFLL 200553Z 14004KT 10SM FEW025 SCT070 27/23 A3005 RMK AO2 SLP176 60000 T02720233 10283 20256 58003
KFLL 200653Z 13006KT 10SM FEW025 27/23 A3003 RMK AO2 SLP167 T02720233
KFLL 200753Z 12007KT 10SM SCT025 28/23 A3003 RMK AO2 SLP167 T02780228
KFLL 200853Z 10009KT 10SM SCT025 28/22 A3002 RMK AO2 SLP166 CB DSNT SE T02830222 56009
KFLL 200953Z 12006KT 10SM FEW014 BKN045 BKN100 24/22 A3004 RMK AO2 LTG DSNT E RAB32E52 SLP172 CB DSNT S P0007 T02440222
KFLL 201053Z 12008KT 10SM FEW014 SCT040 BKN070 OVC130 25/22 A3008 RMK AO2 RAB27E51 SLP185 P0003 T02500222
KFLL 201153Z 10014KT 10SM FEW025 FEW080 BKN100 BKN200 25/23 A3009 RMK AO2 RAB12E50 SLP187 P0000 60010 70010 T02500228 10283 20239 51021
KFLL 201253Z 13007KT 10SM FEW025 FEW060 BKN100 BKN200 26/23 A3009 RMK AO2 RAB18E36 SLP188 P0000 T02560233
KFLL 201353Z 11011KT 10SM FEW025 FEW060 SCT100 BKN250 27/24 A3010 RMK AO2 SLP192 T02720239
KFLL 201453Z 11009KT 10SM FEW025 FEW100 SCT150 BKN250 29/23 A3009 RMK AO2 SLP190 60000 T02890228 50002



Page loaded:  15:49 UTC  |   08:49 AM Pacific  |   09:49 AM Mountain  |   10:49 AM Central  |   11:49 AM Eastern

 

ADVISORIES

FORECASTS

FORECASTS

OBSERVATIONS

USER TOOLS

ABOUT US